sensor_id;sensor_type;location;lat;lon;timestamp;pressure;altitude;pressure_sealevel;temperature;humidity
20897;BME280;10608;42.600;23.398;2024-02-28T00:01:51;39080.44;;;-138.15;66.59
20897;BME280;10608;42.600;23.398;2024-02-28T00:04:17;38966.44;;;-138.15;66.70
20897;BME280;10608;42.600;23.398;2024-02-28T00:06:43;38760.06;;;-138.15;67.90
20897;BME280;10608;42.600;23.398;2024-02-28T00:09:10;38608.72;;;-138.15;68.38
20897;BME280;10608;42.600;23.398;2024-02-28T00:11:36;38553.69;;;-138.15;68.14
20897;BME280;10608;42.600;23.398;2024-02-28T00:14:01;38425.94;;;-138.15;68.57
20897;BME280;10608;42.600;23.398;2024-02-28T00:16:27;38254.97;;;-138.15;69.41
20897;BME280;10608;42.600;23.398;2024-02-28T00:18:53;38180.28;;;-138.15;68.83
20897;BME280;10608;42.600;23.398;2024-02-28T00:21:18;38060.41;;;-138.15;69.13
20897;BME280;10608;42.600;23.398;2024-02-28T00:23:44;37962.16;;;-138.15;69.69
20897;BME280;10608;42.600;23.398;2024-02-28T00:26:10;37952.34;;;-138.15;69.55
20897;BME280;10608;42.600;23.398;2024-02-28T00:28:36;37915.00;;;-138.15;69.27
20897;BME280;10608;42.600;23.398;2024-02-28T00:31:01;37885.53;;;-138.15;70.01
20897;BME280;10608;42.600;23.398;2024-02-28T00:33:27;37887.50;;;-138.15;69.79
20897;BME280;10608;42.600;23.398;2024-02-28T00:35:52;37791.19;;;-138.15;70.18
20897;BME280;10608;42.600;23.398;2024-02-28T00:38:19;37669.38;;;-138.15;70.67
20897;BME280;10608;42.600;23.398;2024-02-28T00:40:44;37641.88;;;-138.15;70.54
20897;BME280;10608;42.600;23.398;2024-02-28T00:43:09;37577.03;;;-138.15;70.03
20897;BME280;10608;42.600;23.398;2024-02-28T00:45:35;37523.97;;;-138.15;71.01
20897;BME280;10608;42.600;23.398;2024-02-28T00:48:00;37512.19;;;-138.15;70.15
20897;BME280;10608;42.600;23.398;2024-02-28T00:50:26;37516.13;;;-138.15;70.42
20897;BME280;10608;42.600;23.398;2024-02-28T00:52:51;37476.81;;;-138.15;70.93
20897;BME280;10608;42.600;23.398;2024-02-28T00:55:17;37484.69;;;-138.15;70.56
20897;BME280;10608;42.600;23.398;2024-02-28T00:57:44;37480.75;;;-138.15;69.68
20897;BME280;10608;42.600;23.398;2024-02-28T01:00:10;37520.03;;;-138.15;69.55
20897;BME280;10608;42.600;23.398;2024-02-28T01:02:35;37529.88;;;-138.15;69.99
20897;BME280;10608;42.600;23.398;2024-02-28T01:05:01;37449.31;;;-138.15;69.76
20897;BME280;10608;42.600;23.398;2024-02-28T01:07:26;37592.75;;;-138.15;69.34
20897;BME280;10608;42.600;23.398;2024-02-28T01:09:51;37563.28;;;-138.15;70.32
20897;BME280;10608;42.600;23.398;2024-02-28T01:12:17;37553.44;;;-138.15;69.41
20897;BME280;10608;42.600;23.398;2024-02-28T01:14:42;37626.16;;;-138.15;69.97
20897;BME280;10608;42.600;23.398;2024-02-28T01:17:08;37616.31;;;-138.15;69.78
20897;BME280;10608;42.600;23.398;2024-02-28T01:19:33;37598.63;;;-138.15;69.36
20897;BME280;10608;42.600;23.398;2024-02-28T01:21:58;37543.63;;;-138.15;70.37
20897;BME280;10608;42.600;23.398;2024-02-28T01:24:24;37512.19;;;-138.15;70.73
20897;BME280;10608;42.600;23.398;2024-02-28T01:26:50;37508.25;;;-138.15;70.13
20897;BME280;10608;42.600;23.398;2024-02-28T01:29:16;37398.22;;;-138.15;70.51
20897;BME280;10608;42.600;23.398;2024-02-28T01:31:41;37461.09;;;-138.15;70.18
20897;BME280;10608;42.600;23.398;2024-02-28T01:34:07;37435.56;;;-138.15;70.64
20897;BME280;10608;42.600;23.398;2024-02-28T01:36:32;37443.41;;;-138.15;70.18
20897;BME280;10608;42.600;23.398;2024-02-28T01:38:57;37410.00;;;-138.15;70.73
20897;BME280;10608;42.600;23.398;2024-02-28T01:41:23;37386.44;;;-138.15;70.28
20897;BME280;10608;42.600;23.398;2024-02-28T01:43:48;37437.53;;;-138.15;70.59
20897;BME280;10608;42.600;23.398;2024-02-28T01:46:24;37459.13;;;-138.15;70.73
20897;BME280;10608;42.600;23.398;2024-02-28T01:48:51;37400.19;;;-138.15;71.09
20897;BME280;10608;42.600;23.398;2024-02-28T01:51:16;37333.38;;;-138.15;71.73
20897;BME280;10608;42.600;23.398;2024-02-28T01:53:43;37089.75;;;-138.15;72.89
20897;BME280;10608;42.600;23.398;2024-02-28T01:56:10;36836.34;;;-138.15;73.67
20897;BME280;10608;42.600;23.398;2024-02-28T01:58:36;36690.97;;;-138.15;73.10
20897;BME280;10608;42.600;23.398;2024-02-28T02:01:03;36730.25;;;-138.15;73.34
20897;BME280;10608;42.600;23.398;2024-02-28T02:03:28;36732.22;;;-138.15;72.84
20897;BME280;10608;42.600;23.398;2024-02-28T02:05:54;36820.63;;;-138.15;72.48
20897;BME280;10608;42.600;23.398;2024-02-28T02:08:20;36871.69;;;-138.15;71.75
20897;BME280;10608;42.600;23.398;2024-02-28T02:10:46;36999.38;;;-138.15;71.68
20897;BME280;10608;42.600;23.398;2024-02-28T02:13:11;36999.38;;;-138.15;71.46
20897;BME280;10608;42.600;23.398;2024-02-28T02:15:37;36999.38;;;-138.15;71.74
20897;BME280;10608;42.600;23.398;2024-02-28T02:18:04;36948.31;;;-138.15;71.74
20897;BME280;10608;42.600;23.398;2024-02-28T02:20:32;36997.44;;;-138.15;71.13
20897;BME280;10608;42.600;23.398;2024-02-28T02:22:58;37074.03;;;-138.15;70.83
20897;BME280;10608;42.600;23.398;2024-02-28T02:25:23;37095.66;;;-138.15;71.33
20897;BME280;10608;42.600;23.398;2024-02-28T02:27:49;37038.69;;;-138.15;71.32
20897;BME280;10608;42.600;23.398;2024-02-28T02:30:14;36962.06;;;-138.15;72.20
20897;BME280;10608;42.600;23.398;2024-02-28T02:32:39;36854.00;;;-138.15;72.27
20897;BME280;10608;42.600;23.398;2024-02-28T02:35:05;36671.31;;;-138.15;72.93
20897;BME280;10608;42.600;23.398;2024-02-28T02:37:30;36730.25;;;-138.15;73.59
20897;BME280;10608;42.600;23.398;2024-02-28T02:39:56;36604.53;;;-138.15;73.59
20897;BME280;10608;42.600;23.398;2024-02-28T02:42:21;36586.84;;;-138.15;74.00
20897;BME280;10608;42.600;23.398;2024-02-28T02:44:46;36478.81;;;-138.15;74.75
20897;BME280;10608;42.600;23.398;2024-02-28T02:47:12;36404.16;;;-138.15;74.37
20897;BME280;10608;42.600;23.398;2024-02-28T02:49:37;36347.19;;;-138.15;74.67
20897;BME280;10608;42.600;23.398;2024-02-28T02:52:03;36329.53;;;-138.15;74.20
20897;BME280;10608;42.600;23.398;2024-02-28T02:54:28;36286.31;;;-138.15;74.82
20897;BME280;10608;42.600;23.398;2024-02-28T02:56:54;36247.03;;;-138.15;74.79
20897;BME280;10608;42.600;23.398;2024-02-28T02:59:19;36195.94;;;-138.15;75.13
20897;BME280;10608;42.600;23.398;2024-02-28T03:01:47;36152.75;;;-138.15;75.57
20897;BME280;10608;42.600;23.398;2024-02-28T03:04:12;36101.66;;;-138.15;75.67
20897;BME280;10608;42.600;23.398;2024-02-28T03:06:38;36105.59;;;-138.15;75.54
20897;BME280;10608;42.600;23.398;2024-02-28T03:09:03;36034.88;;;-138.15;75.68
20897;BME280;10608;42.600;23.398;2024-02-28T03:11:29;35975.97;;;-138.15;76.29
20897;BME280;10608;42.600;23.398;2024-02-28T03:13:54;35975.97;;;-138.15;75.89
20897;BME280;10608;42.600;23.398;2024-02-28T03:16:19;35932.75;;;-138.15;75.85
20897;BME280;10608;42.600;23.398;2024-02-28T03:18:45;35897.41;;;-138.15;76.49
20897;BME280;10608;42.600;23.398;2024-02-28T03:21:10;35899.38;;;-138.15;76.46
20897;BME280;10608;42.600;23.398;2024-02-28T03:23:36;35897.41;;;-138.15;76.25
20897;BME280;10608;42.600;23.398;2024-02-28T03:26:02;35759.94;;;-138.15;76.67
20897;BME280;10608;42.600;23.398;2024-02-28T03:28:28;35759.94;;;-138.15;76.66
20897;BME280;10608;42.600;23.398;2024-02-28T03:30:54;35718.69;;;-138.15;77.14
20897;BME280;10608;42.600;23.398;2024-02-28T03:33:19;35490.88;;;-138.15;78.43
20897;BME280;10608;42.600;23.398;2024-02-28T03:35:44;35402.50;;;-138.15;79.05
20897;BME280;10608;42.600;23.398;2024-02-28T03:38:11;35272.88;;;-138.15;79.21
20897;BME280;10608;42.600;23.398;2024-02-28T03:40:37;35115.78;;;-138.15;80.17
20897;BME280;10608;42.600;23.398;2024-02-28T03:43:02;35037.25;;;-138.15;80.41
20897;BME280;10608;42.600;23.398;2024-02-28T03:45:28;34956.75;;;-138.15;80.51
20897;BME280;10608;42.600;23.398;2024-02-28T03:47:54;34960.66;;;-138.15;80.04
20897;BME280;10608;42.600;23.398;2024-02-28T03:50:20;34958.72;;;-138.15;80.75
20897;BME280;10608;42.600;23.398;2024-02-28T03:52:45;34925.31;;;-138.15;80.46
20897;BME280;10608;42.600;23.398;2024-02-28T03:55:10;34962.63;;;-138.15;80.29
20897;BME280;10608;42.600;23.398;2024-02-28T03:57:36;35001.91;;;-138.15;79.58
20897;BME280;10608;42.600;23.398;2024-02-28T04:00:02;35052.97;;;-138.15;79.50
20897;BME280;10608;42.600;23.398;2024-02-28T04:02:28;34974.41;;;-138.15;79.92
20897;BME280;10608;42.600;23.398;2024-02-28T04:04:53;34982.28;;;-138.15;79.80
20897;BME280;10608;42.600;23.398;2024-02-28T04:07:18;35017.63;;;-138.15;80.12
20897;BME280;10608;42.600;23.398;2024-02-28T04:09:44;34962.63;;;-138.15;80.19
20897;BME280;10608;42.600;23.398;2024-02-28T04:12:10;34943.00;;;-138.15;79.74
20897;BME280;10608;42.600;23.398;2024-02-28T04:14:37;34970.50;;;-138.15;79.80
20897;BME280;10608;42.600;23.398;2024-02-28T04:17:03;34956.75;;;-138.15;79.43
20897;BME280;10608;42.600;23.398;2024-02-28T04:19:32;35009.75;;;-138.15;80.27
20897;BME280;10608;42.600;23.398;2024-02-28T04:21:58;35025.47;;;-138.15;79.80
20897;BME280;10608;42.600;23.398;2024-02-28T04:24:23;35060.81;;;-138.15;79.27
20897;BME280;10608;42.600;23.398;2024-02-28T04:26:49;35068.66;;;-138.15;79.45
20897;BME280;10608;42.600;23.398;2024-02-28T04:29:14;35092.22;;;-138.15;79.10
20897;BME280;10608;42.600;23.398;2024-02-28T04:31:39;35174.69;;;-138.15;78.69
20897;BME280;10608;42.600;23.398;2024-02-28T04:34:05;35174.69;;;-138.15;78.95
20897;BME280;10608;42.600;23.398;2024-02-28T04:36:30;35155.06;;;-138.15;79.01
20897;BME280;10608;42.600;23.398;2024-02-28T04:38:56;35164.88;;;-138.15;78.81
20897;BME280;10608;42.600;23.398;2024-02-28T04:41:21;35192.38;;;-138.15;78.40
20897;BME280;10608;42.600;23.398;2024-02-28T04:43:47;35178.63;;;-138.15;79.03
20897;BME280;10608;42.600;23.398;2024-02-28T04:46:12;35164.88;;;-138.15;79.72
20897;BME280;10608;42.600;23.398;2024-02-28T04:48:38;35139.34;;;-138.15;79.63
20897;BME280;10608;42.600;23.398;2024-02-28T04:51:03;35054.91;;;-138.15;80.35
20897;BME280;10608;42.600;23.398;2024-02-28T04:53:29;35021.53;;;-138.15;80.61
20897;BME280;10608;42.600;23.398;2024-02-28T04:55:54;34958.72;;;-138.15;80.23
20897;BME280;10608;42.600;23.398;2024-02-28T04:58:19;34921.41;;;-138.15;80.38
20897;BME280;10608;42.600;23.398;2024-02-28T05:00:45;34917.47;;;-138.15;80.56
20897;BME280;10608;42.600;23.398;2024-02-28T05:03:11;34899.81;;;-138.15;81.03
20897;BME280;10608;42.600;23.398;2024-02-28T05:05:36;34891.94;;;-138.15;80.70
20897;BME280;10608;42.600;23.398;2024-02-28T05:08:02;34901.75;;;-138.15;80.53
20897;BME280;10608;42.600;23.398;2024-02-28T05:10:27;34935.16;;;-138.15;80.44
20897;BME280;10608;42.600;23.398;2024-02-28T05:12:52;34907.66;;;-138.15;79.87
20897;BME280;10608;42.600;23.398;2024-02-28T05:15:18;34950.84;;;-138.15;80.25
20897;BME280;10608;42.600;23.398;2024-02-28T05:17:44;34968.53;;;-138.15;79.07
20897;BME280;10608;42.600;23.398;2024-02-28T05:20:10;35051.00;;;-138.15;78.47
20897;BME280;10608;42.600;23.398;2024-02-28T05:22:35;35155.06;;;-138.15;78.55
20897;BME280;10608;42.600;23.398;2024-02-28T05:25:01;35208.09;;;-138.15;78.40
20897;BME280;10608;42.600;23.398;2024-02-28T05:27:26;35304.31;;;-138.15;77.39
20897;BME280;10608;42.600;23.398;2024-02-28T05:29:52;35304.31;;;-138.15;77.34
20897;BME280;10608;42.600;23.398;2024-02-28T05:32:18;35414.28;;;-138.15;76.67
20897;BME280;10608;42.600;23.398;2024-02-28T05:34:45;35512.47;;;-138.15;75.77
20897;BME280;10608;42.600;23.398;2024-02-28T05:37:11;35589.06;;;-138.15;76.20
20897;BME280;10608;42.600;23.398;2024-02-28T05:39:36;35685.28;;;-138.15;75.31
20897;BME280;10608;42.600;23.398;2024-02-28T05:42:02;35932.75;;;-138.15;72.85
20897;BME280;10608;42.600;23.398;2024-02-28T05:44:27;36229.34;;;-138.15;70.34
20897;BME280;10608;42.600;23.398;2024-02-28T05:46:52;36506.31;;;-138.15;68.79
20897;BME280;10608;42.600;23.398;2024-02-28T05:49:18;36696.84;;;-138.15;67.86
20897;BME280;10608;42.600;23.398;2024-02-28T05:51:44;36914.91;;;-138.15;66.94
20897;BME280;10608;42.600;23.398;2024-02-28T05:54:10;37038.69;;;-138.15;65.70
20897;BME280;10608;42.600;23.398;2024-02-28T05:56:35;37107.44;;;-138.15;65.48
20897;BME280;10608;42.600;23.398;2024-02-28T05:59:01;37219.44;;;-138.15;65.39
20897;BME280;10608;42.600;23.398;2024-02-28T06:01:26;37343.22;;;-138.15;63.66
20897;BME280;10608;42.600;23.398;2024-02-28T06:03:51;37468.97;;;-138.15;62.09
20897;BME280;10608;42.600;23.398;2024-02-28T06:06:17;37720.47;;;-138.15;61.18
20897;BME280;10608;42.600;23.398;2024-02-28T06:08:43;37877.66;;;-138.15;60.37
20897;BME280;10608;42.600;23.398;2024-02-28T06:11:09;38080.06;;;-138.15;57.52
20897;BME280;10608;42.600;23.398;2024-02-28T06:13:35;38551.72;;;-138.15;53.00
20897;BME280;10608;42.600;23.398;2024-02-28T06:16:01;39507.00;;;-138.15;49.88
20897;BME280;10608;42.600;23.398;2024-02-28T06:18:27;39858.91;;;-138.15;50.02
20897;BME280;10608;42.600;23.398;2024-02-28T06:20:54;39823.53;;;-138.15;51.11
20897;BME280;10608;42.600;23.398;2024-02-28T06:23:20;39986.72;;;-138.15;48.38
20897;BME280;10608;42.600;23.398;2024-02-28T06:25:46;40659.16;;;-138.15;44.73
20897;BME280;10608;42.600;23.398;2024-02-28T06:28:11;41205.88;;;-138.15;42.35
20897;BME280;10608;42.600;23.398;2024-02-28T06:30:37;41646.44;;;-138.15;39.69
20897;BME280;10608;42.600;23.398;2024-02-28T06:33:02;42022.13;;;-138.15;37.79
20897;BME280;10608;42.600;23.398;2024-02-28T06:35:29;42364.44;;;-138.15;35.84
20897;BME280;10608;42.600;23.398;2024-02-28T06:37:55;42592.63;;;-138.15;35.29
20897;BME280;10608;42.600;23.398;2024-02-28T06:40:20;42789.38;;;-138.15;33.42
20897;BME280;10608;42.600;23.398;2024-02-28T06:42:45;43131.75;;;-138.15;31.90
20897;BME280;10608;42.600;23.398;2024-02-28T06:45:11;43824.41;;;-138.15;29.81
20897;BME280;10608;42.600;23.398;2024-02-28T06:47:36;44428.66;;;-138.15;29.71
20897;BME280;10608;42.600;23.398;2024-02-28T06:50:03;44777.06;;;-138.15;28.91
20897;BME280;10608;42.600;23.398;2024-02-28T06:52:29;45475.94;;;-138.15;29.12
20897;BME280;10608;42.600;23.398;2024-02-28T06:54:55;45633.44;;;-138.15;29.99
20897;BME280;10608;42.600;23.398;2024-02-28T06:57:20;45804.72;;;-138.15;29.97
20897;BME280;10608;42.600;23.398;2024-02-28T06:59:46;45950.44;;;-138.15;30.45
20897;BME280;10608;42.600;23.398;2024-02-28T07:02:11;46141.44;;;-138.15;31.01
20897;BME280;10608;42.600;23.398;2024-02-28T07:04:38;46041.03;;;-138.15;30.73
20897;BME280;10608;42.600;23.398;2024-02-28T07:07:04;46037.09;;;-138.15;30.44
20897;BME280;10608;42.600;23.398;2024-02-28T07:09:30;46214.31;;;-138.15;31.57
20897;BME280;10608;42.600;23.398;2024-02-28T07:11:57;46212.34;;;-138.15;31.46
20897;BME280;10608;42.600;23.398;2024-02-28T07:14:23;46216.28;;;-138.15;30.84
20897;BME280;10608;42.600;23.398;2024-02-28T07:16:48;46082.38;;;-138.15;31.02
20897;BME280;10608;42.600;23.398;2024-02-28T07:19:14;46102.06;;;-138.15;30.51
20897;BME280;10608;42.600;23.398;2024-02-28T07:21:39;45976.03;;;-138.15;29.98
20897;BME280;10608;42.600;23.398;2024-02-28T07:24:04;45852.00;;;-138.15;28.47
20897;BME280;10608;42.600;23.398;2024-02-28T07:26:31;46001.63;;;-138.15;28.45
20897;BME280;10608;42.600;23.398;2024-02-28T07:28:56;46320.66;;;-138.15;29.59
20897;BME280;10608;42.600;23.398;2024-02-28T07:31:22;46340.34;;;-138.15;30.24
20897;BME280;10608;42.600;23.398;2024-02-28T07:33:47;45944.53;;;-138.15;28.72
20897;BME280;10608;42.600;23.398;2024-02-28T07:36:13;45966.19;;;-138.15;28.27
20897;BME280;10608;42.600;23.398;2024-02-28T07:38:41;46200.53;;;-138.15;28.04
20897;BME280;10608;42.600;23.398;2024-02-28T07:41:07;45934.69;;;-138.15;27.71
20897;BME280;10608;42.600;23.398;2024-02-28T07:43:32;45852.00;;;-138.15;27.10
20897;BME280;10608;42.600;23.398;2024-02-28T07:46:02;46147.34;;;-138.15;27.51
20897;BME280;10608;42.600;23.398;2024-02-28T07:48:28;46147.34;;;-138.15;27.02
20897;BME280;10608;42.600;23.398;2024-02-28T07:50:53;46641.66;;;-138.15;28.37
20897;BME280;10608;42.600;23.398;2024-02-28T07:53:19;46505.75;;;-138.15;28.41
20897;BME280;10608;42.600;23.398;2024-02-28T07:55:44;46608.16;;;-138.15;28.97
20897;BME280;10608;42.600;23.398;2024-02-28T07:58:10;46596.34;;;-138.15;28.98
20897;BME280;10608;42.600;23.398;2024-02-28T08:00:35;46655.44;;;-138.15;28.97
20897;BME280;10608;42.600;23.398;2024-02-28T08:03:01;46637.72;;;-138.15;28.69
20897;BME280;10608;42.600;23.398;2024-02-28T08:05:27;46509.69;;;-138.15;29.12
20897;BME280;10608;42.600;23.398;2024-02-28T08:07:52;46647.56;;;-138.15;28.34
20897;BME280;10608;42.600;23.398;2024-02-28T08:10:18;46541.22;;;-138.15;28.64
20897;BME280;10608;42.600;23.398;2024-02-28T08:12:43;46661.34;;;-138.15;28.51
20897;BME280;10608;42.600;23.398;2024-02-28T08:15:09;46663.31;;;-138.15;28.71
20897;BME280;10608;42.600;23.398;2024-02-28T08:17:35;46942.97;;;-138.15;29.60
20897;BME280;10608;42.600;23.398;2024-02-28T08:20:02;47128.13;;;-138.15;30.88
20897;BME280;10608;42.600;23.398;2024-02-28T08:22:30;47037.50;;;-138.15;30.74
20897;BME280;10608;42.600;23.398;2024-02-28T08:24:55;47025.69;;;-138.15;29.92
20897;BME280;10608;42.600;23.398;2024-02-28T08:27:21;46946.91;;;-138.15;30.06
20897;BME280;10608;42.600;23.398;2024-02-28T08:29:48;46903.59;;;-138.15;30.09
20897;BME280;10608;42.600;23.398;2024-02-28T08:32:14;46954.78;;;-138.15;30.20
20897;BME280;10608;42.600;23.398;2024-02-28T08:34:43;46842.53;;;-138.15;29.71
20897;BME280;10608;42.600;23.398;2024-02-28T08:37:09;46899.66;;;-138.15;29.50
20897;BME280;10608;42.600;23.398;2024-02-28T08:39:35;46877.97;;;-138.15;29.28
20897;BME280;10608;42.600;23.398;2024-02-28T08:42:00;46734.22;;;-138.15;29.29
20897;BME280;10608;42.600;23.398;2024-02-28T08:44:25;46521.50;;;-138.15;28.36
20897;BME280;10608;42.600;23.398;2024-02-28T08:46:51;46681.03;;;-138.15;27.85
20897;BME280;10608;42.600;23.398;2024-02-28T08:49:16;46659.38;;;-138.15;28.15
20897;BME280;10608;42.600;23.398;2024-02-28T08:51:42;46706.63;;;-138.15;27.92
20897;BME280;10608;42.600;23.398;2024-02-28T08:54:07;46818.91;;;-138.15;27.97
20897;BME280;10608;42.600;23.398;2024-02-28T08:56:33;46734.22;;;-138.15;28.07
20897;BME280;10608;42.600;23.398;2024-02-28T08:58:59;46539.25;;;-138.15;27.36
20897;BME280;10608;42.600;23.398;2024-02-28T09:01:25;46655.44;;;-138.15;26.75
20897;BME280;10608;42.600;23.398;2024-02-28T09:03:50;46572.72;;;-138.15;26.72
20897;BME280;10608;42.600;23.398;2024-02-28T09:06:16;46722.38;;;-138.15;26.74
20897;BME280;10608;42.600;23.398;2024-02-28T09:08:41;46864.19;;;-138.15;27.08
20897;BME280;10608;42.600;23.398;2024-02-28T09:11:06;46980.41;;;-138.15;27.51
20897;BME280;10608;42.600;23.398;2024-02-28T09:13:32;47230.53;;;-138.15;29.09
20897;BME280;10608;42.600;23.398;2024-02-28T09:15:57;47403.88;;;-138.15;30.09
20897;BME280;10608;42.600;23.398;2024-02-28T09:18:23;47234.47;;;-138.15;29.95
20897;BME280;10608;42.600;23.398;2024-02-28T09:20:48;47189.19;;;-138.15;29.42
20897;BME280;10608;42.600;23.398;2024-02-28T09:23:14;47161.59;;;-138.15;29.42
20897;BME280;10608;42.600;23.398;2024-02-28T09:25:39;47246.31;;;-138.15;29.60
20897;BME280;10608;42.600;23.398;2024-02-28T09:28:05;47254.19;;;-138.15;29.82
20897;BME280;10608;42.600;23.398;2024-02-28T09:30:30;47258.13;;;-138.15;30.21
20897;BME280;10608;42.600;23.398;2024-02-28T09:32:56;47230.53;;;-138.15;30.06
20897;BME280;10608;42.600;23.398;2024-02-28T09:35:22;47134.03;;;-138.15;29.76
20897;BME280;10608;42.600;23.398;2024-02-28T09:37:47;46907.53;;;-138.15;28.67
20897;BME280;10608;42.600;23.398;2024-02-28T09:40:13;46929.19;;;-138.15;28.39
20897;BME280;10608;42.600;23.398;2024-02-28T09:42:38;46887.81;;;-138.15;27.79
20897;BME280;10608;42.600;23.398;2024-02-28T09:45:04;46982.38;;;-138.15;28.66
20897;BME280;10608;42.600;23.398;2024-02-28T09:47:33;46868.13;;;-138.15;28.27
20897;BME280;10608;42.600;23.398;2024-02-28T09:50:01;46870.09;;;-138.15;27.88
20897;BME280;10608;42.600;23.398;2024-02-28T09:52:27;46887.81;;;-138.15;27.75
20897;BME280;10608;42.600;23.398;2024-02-28T09:54:53;46879.94;;;-138.15;27.65
20897;BME280;10608;42.600;23.398;2024-02-28T09:57:19;47002.06;;;-138.15;27.52
20897;BME280;10608;42.600;23.398;2024-02-28T09:59:45;47185.25;;;-138.15;28.62
20897;BME280;10608;42.600;23.398;2024-02-28T10:02:11;47388.13;;;-138.15;29.06
20897;BME280;10608;42.600;23.398;2024-02-28T10:04:39;47561.47;;;-138.15;30.28
20897;BME280;10608;42.600;23.398;2024-02-28T10:07:13;47687.53;;;-138.15;30.16
20897;BME280;10608;42.600;23.398;2024-02-28T10:09:42;47738.75;;;-138.15;30.91
20897;BME280;10608;42.600;23.398;2024-02-28T10:12:08;47799.81;;;-138.15;31.01
20897;BME280;10608;42.600;23.398;2024-02-28T10:14:33;47910.16;;;-138.15;31.54
20897;BME280;10608;42.600;23.398;2024-02-28T10:16:59;47823.47;;;-138.15;31.96
20897;BME280;10608;42.600;23.398;2024-02-28T10:19:25;47766.34;;;-138.15;31.63
20897;BME280;10608;42.600;23.398;2024-02-28T10:21:50;47788.00;;;-138.15;31.63
20897;BME280;10608;42.600;23.398;2024-02-28T10:24:16;47776.19;;;-138.15;31.99
20897;BME280;10608;42.600;23.398;2024-02-28T10:26:46;47652.09;;;-138.15;31.39
20897;BME280;10608;42.600;23.398;2024-02-28T10:29:21;47663.91;;;-138.15;31.33
20897;BME280;10608;42.600;23.398;2024-02-28T10:31:46;47695.41;;;-138.15;31.26
20897;BME280;10608;42.600;23.398;2024-02-28T10:34:13;47742.69;;;-138.15;31.05
20897;BME280;10608;42.600;23.398;2024-02-28T10:36:41;47726.94;;;-138.15;31.14
20897;BME280;10608;42.600;23.398;2024-02-28T10:39:09;47695.41;;;-138.15;30.67
20897;BME280;10608;42.600;23.398;2024-02-28T10:41:37;47691.47;;;-138.15;30.31
20897;BME280;10608;42.600;23.398;2024-02-28T10:44:03;47606.78;;;-138.15;30.67
20897;BME280;10608;42.600;23.398;2024-02-28T10:46:29;47612.69;;;-138.15;30.26
20897;BME280;10608;42.600;23.398;2024-02-28T10:48:54;47667.84;;;-138.15;30.76
20897;BME280;10608;42.600;23.398;2024-02-28T10:51:23;47620.56;;;-138.15;30.04
20897;BME280;10608;42.600;23.398;2024-02-28T10:54:01;47571.31;;;-138.15;29.92
20897;BME280;10608;42.600;23.398;2024-02-28T10:56:28;47659.97;;;-138.15;31.11
20897;BME280;10608;42.600;23.398;2024-02-28T10:58:59;47683.59;;;-138.15;30.53
20897;BME280;10608;42.600;23.398;2024-02-28T11:01:25;47774.22;;;-138.15;31.58
20897;BME280;10608;42.600;23.398;2024-02-28T11:03:51;47703.31;;;-138.15;31.20
20897;BME280;10608;42.600;23.398;2024-02-28T11:06:21;47636.31;;;-138.15;30.81
20897;BME280;10608;42.600;23.398;2024-02-28T11:08:48;47593.00;;;-138.15;30.74
20897;BME280;10608;42.600;23.398;2024-02-28T11:11:14;47610.72;;;-138.15;31.26
20897;BME280;10608;42.600;23.398;2024-02-28T11:13:51;47614.66;;;-138.15;31.77
20897;BME280;10608;42.600;23.398;2024-02-28T11:16:16;47510.25;;;-138.15;31.82
20897;BME280;10608;42.600;23.398;2024-02-28T11:18:48;47488.59;;;-138.15;32.44
20897;BME280;10608;42.600;23.398;2024-02-28T11:21:18;47297.50;;;-138.15;32.48
20897;BME280;10608;42.600;23.398;2024-02-28T11:23:46;47250.25;;;-138.15;31.78
20897;BME280;10608;42.600;23.398;2024-02-28T11:26:13;47346.75;;;-138.15;31.58
20897;BME280;10608;42.600;23.398;2024-02-28T11:28:38;47256.16;;;-138.15;31.33
20897;BME280;10608;42.600;23.398;2024-02-28T11:31:05;47411.75;;;-138.15;31.75
20897;BME280;10608;42.600;23.398;2024-02-28T11:33:30;47380.25;;;-138.15;31.52
20897;BME280;10608;42.600;23.398;2024-02-28T11:35:59;47462.97;;;-138.15;32.05
20897;BME280;10608;42.600;23.398;2024-02-28T11:38:27;47569.34;;;-138.15;32.65
20897;BME280;10608;42.600;23.398;2024-02-28T11:40:53;47526.00;;;-138.15;32.42
20897;BME280;10608;42.600;23.398;2024-02-28T11:43:20;47553.59;;;-138.15;32.20
20897;BME280;10608;42.600;23.398;2024-02-28T11:45:46;47589.03;;;-138.15;32.38
20897;BME280;10608;42.600;23.398;2024-02-28T11:48:15;47541.78;;;-138.15;31.66
20897;BME280;10608;42.600;23.398;2024-02-28T11:50:40;47559.50;;;-138.15;31.70
20897;BME280;10608;42.600;23.398;2024-02-28T11:53:07;47561.47;;;-138.15;31.00
20897;BME280;10608;42.600;23.398;2024-02-28T11:55:32;47551.63;;;-138.15;31.79
20897;BME280;10608;42.600;23.398;2024-02-28T11:57:58;47760.44;;;-138.15;31.13
20897;BME280;10608;42.600;23.398;2024-02-28T12:00:23;47862.88;;;-138.15;32.57
20897;BME280;10608;42.600;23.398;2024-02-28T12:02:49;47750.59;;;-138.15;32.36
20897;BME280;10608;42.600;23.398;2024-02-28T12:05:14;47652.09;;;-138.15;32.17
20897;BME280;10608;42.600;23.398;2024-02-28T12:07:39;47636.31;;;-138.15;31.26
20897;BME280;10608;42.600;23.398;2024-02-28T12:10:08;47780.13;;;-138.15;31.71
20897;BME280;10608;42.600;23.398;2024-02-28T12:12:34;47628.44;;;-138.15;32.49
20897;BME280;10608;42.600;23.398;2024-02-28T12:15:00;47575.25;;;-138.15;31.61
20897;BME280;10608;42.600;23.398;2024-02-28T12:17:26;47526.00;;;-138.15;31.72
20897;BME280;10608;42.600;23.398;2024-02-28T12:19:52;47557.53;;;-138.15;31.57
20897;BME280;10608;42.600;23.398;2024-02-28T12:22:18;47415.69;;;-138.15;31.49
20897;BME280;10608;42.600;23.398;2024-02-28T12:24:43;47368.44;;;-138.15;31.82